x

East Dellwood (46207) Wave Buoy

11:00pm - Wed 7th Dec 2016 All times are PST. -8 hours from GMT.

  • Sig Wave height 7.2ft
  • Peak Period 14s
  • Wind
    20mph, 25mph gusts
  • Sea Temp 51°f
  • Air Temp 44°f
  • Sea Pressure 1022.7mb
  • East Dellwood
  • East Dellwood

More Historic Weather Station data

Upgrade to MSW Pro to gain access to the past 30 days of data for over 8000 Wavebouys and Weather Stations around the globe.

Join Pro

Comparision Forecast

View Surf forecast
   
Wed 12/07 11:00pm 7ft 14s 20 25 mph 1022.7mb 51f 44f
10:00pm 7ft 13s 20 25 mph 1023.3mb 51f 43f
9:00pm 7ft 12s 13 20 mph 1023.7mb 52f 44f
8:00pm 7ft 13s 16 20 mph 1024mb 52f 46f
7:00pm 6ft 11s 18 22 mph 1024.4mb 52f 45f
6:00pm 6ft 14s 18 22 mph 1025.1mb 52f 43f
5:00pm 6ft 13s 20 25 mph 1025.5mb 52f 42f
4:00pm 6ft 14s 18 22 mph 1025.9mb 52f 43f
3:00pm 6ft 13s 18 22 mph 1026.2mb 52f 43f
2:00pm 5.5ft 14s 20 25 mph 1026.5mb 51f 43f
1:00pm 5ft 14s 18 22 mph 1027.1mb 51f 42f
12:00pm 6ft 14s 13 16 mph 1027.6mb 52f 42f
11:00am 6ft 14s 13 20 mph 1028mb 51f 42f
10:00am 5.5ft 13s 11 16 mph 1028.2mb 51f 40f
9:00am 5.5ft 14s 11 18 mph 1028mb 51f 40f
8:00am 5ft 14s 13 18 mph 1028mb 51f 39f
7:00am 4.5ft 14s 16 18 mph 1028mb 51f 40f
6:00am 4.5ft 14s 7 11 mph 1028.1mb 51f 39f
5:00am 4.5ft 14s 9 13 mph 1028.5mb 51f 39f
4:00am 5ft 14s 9 11 mph 1028.8mb 51f 38f
3:00am 5ft 10s 9 13 mph 1029.2mb 51f 38f
2:00am 6ft 14s 11 16 mph 1029.1mb 51f 38f
1:00am 6ft 10s 11 16 mph 1029.1mb 51f 37f
12:00am 6ft 9s 11 18 mph 1028.7mb 51f 38f
Tue 12/06 11:00pm 6ft 9s 9 13 mph 1028.6mb 51f 38f
10:00pm 6ft 10s 13 16 mph 1028.2mb 51f 38f
9:00pm 6ft 10s 13 18 mph 1028.2mb 52f 38f
8:00pm 6ft 10s 18 22 mph 1027.6mb 52f 38f
7:00pm 6ft 6s 16 20 mph 1027.6mb 51f 39f
6:00pm 7ft 11s 18 25 mph 1027.2mb 52f 39f
4:00pm 7ft 11s 18 25 mph 1026.8mb 51f 40f
3:00pm 7ft 11s 20 25 mph 1026.6mb 51f 40f
2:00pm 7ft 11s 18 25 mph 1026.3mb 51f 40f
1:00pm 8ft 10s 18 25 mph 1026.3mb 52f 40f
12:00pm 8ft 11s 18 22 mph 1026.3mb 52f 40f
9:00am 9.5ft 11s 20 27 mph 1025mb 52f 42f
8:00am  -   -  20
mph
1024.7mb 52f 42f
6:00am 10ft 11s 20 27 mph 1024.1mb 52f 42f
5:00am 10ft 12s 22 29 mph 1024.1mb 52f 43f
4:00am 10ft 11s 22 29 mph 1023.9mb 52f 42f
3:00am 10ft 12s 22 27 mph 1023.8mb 52f 43f
2:00am 10ft 12s 22 27 mph 1023.3mb 52f 43f
1:00am 10.5ft 13s 22 27 mph 1022.6mb 52f 43f
12:00am 10.5ft 13s 22 27 mph 1022.2mb 52f 44f
Mon 12/05 11:00pm 9.5ft 12s 22 27 mph 1021.6mb 52f 43f
10:00pm 10.5ft 13s 22 27 mph 1020.9mb 52f 44f
9:00pm 10ft 13s 22 29 mph 1020.3mb 52f 44f
8:00pm 12.5ft 12s 18 20 mph 1019.9mb 52f 41f
7:00pm 12.5ft 13s 16 20 mph 1019.5mb 52f 41f
6:00pm 13ft 12s 18 25 mph 1018.9mb 52f 43f
5:00pm 12.5ft 14s 16 20 mph 1018.5mb 53f 42f
4:00pm 13ft 14s 25 31 mph 1018mb 53f 42f
3:00pm 13.5ft 14s 16 20 mph 1017.6mb 53f 43f
2:00pm 14ft 14s 9 13 mph 1017.7mb 53f 43f
1:00pm 12.5ft 14s 9 13 mph 1017.8mb 52f 42f
12:00pm 11.5ft 14s 9 13 mph 1017.5mb 53f 41f
11:00am 12ft 14s 13 20 mph 1017.2mb 52f 42f
10:00am 13ft 13s 7 9 mph 1016.8mb 52f 43f
9:00am 13.5ft 14s 4 7 mph 1016.5mb 52f 42f
8:00am 13ft 13s 7 11 mph 1016mb 52f 42f
7:00am 16ft 14s 4 13 mph 1015.9mb 52f 42f
6:00am 14ft 14s 9 18 mph 1015.7mb 52f 42f
5:00am 14.5ft 13s 9 13 mph 1015.6mb 52f 42f
4:00am 14.5ft 14s 9 13 mph 1015.7mb 52f 42f
3:00am 14.5ft 13s 11 16 mph 1016mb 52f 43f
2:00am 13ft 12s 11 18 mph 1015.9mb 52f 42f
1:00am 13ft 14s 11 16 mph 1016.1mb 52f 42f
12:00am 12ft 13s 9 13 mph 1016.3mb 52f 41f
Sun 12/04 11:00pm 12ft 14s 16 22 mph 1016.1mb 52f 41f
10:00pm 13ft 13s 4 9 mph 1016.4mb 52f 39f
8:00pm 15ft 14s 13 20 mph 1015.8mb 52f 41f
7:00pm 15ft 14s 16 22 mph 1015.4mb 52f 43f
6:00pm 14ft 14s 13 18 mph 1015.9mb 52f 42f
5:00pm 16.5ft 14s 13 20 mph 1015.8mb 52f 42f
4:00pm 16ft 14s 13 18 mph 1016.1mb 52f 41f
3:00pm 17.5ft 15s 25 34 mph 1016mb 52f 39f
2:00pm 17.5ft 14s 20 27 mph 1015.8mb 52f 44f
1:00pm 19.5ft 14s 25 34 mph 1015.7mb 52f 45f
12:00pm 17.5ft 12s 25 34 mph 1016.2mb 52f 44f
11:00am 19.5ft 15s 29 36 mph 1017.2mb 53f 43f
10:00am 18.5ft 14s 22 31 mph 1017.7mb 53f 42f
9:00am 18.5ft 14s 13 20 mph 1018mb 53f 43f